createdAt,value
2018-07-13T00:00:00.957Z,10.73
2018-07-13T00:02:28.179Z,11.10
2018-07-13T00:04:55.281Z,11.37
2018-07-13T00:07:22.412Z,10.80
2018-07-13T00:09:49.532Z,11.10
2018-07-13T00:12:16.692Z,11.40
2018-07-13T00:14:50.060Z,11.27
2018-07-13T00:17:17.205Z,10.90
2018-07-13T00:19:44.313Z,11.10
2018-07-13T00:22:11.481Z,11.00
2018-07-13T00:24:38.645Z,10.63
2018-07-13T00:27:05.811Z,11.07
2018-07-13T00:29:32.898Z,11.13
2018-07-13T00:32:00.006Z,11.27
2018-07-13T00:34:27.109Z,10.90
2018-07-13T00:36:54.214Z,10.67
2018-07-13T00:39:21.328Z,11.23
2018-07-13T00:41:48.442Z,11.17
2018-07-13T00:44:15.546Z,10.70
2018-07-13T00:46:42.690Z,10.93
2018-07-13T00:49:09.792Z,10.60
2018-07-13T00:51:36.962Z,11.20
2018-07-13T00:54:04.090Z,11.00
2018-07-13T00:56:31.184Z,10.77
2018-07-13T00:58:58.292Z,10.60
2018-07-13T01:01:29.129Z,11.10
2018-07-13T01:03:56.233Z,10.40
2018-07-13T01:06:23.341Z,10.97
2018-07-13T01:08:50.557Z,10.33
2018-07-13T01:11:17.673Z,10.10
2018-07-13T01:13:44.772Z,10.87
2018-07-13T01:16:11.916Z,10.90
2018-07-13T01:18:39.161Z,10.37
2018-07-13T01:21:06.283Z,10.20
2018-07-13T01:23:33.373Z,9.83
2018-07-13T01:26:00.489Z,11.10
2018-07-13T01:28:27.692Z,10.03
2018-07-13T01:30:54.906Z,10.27
2018-07-13T01:33:21.993Z,10.00
2018-07-13T01:35:49.118Z,11.30
2018-07-13T01:38:16.393Z,10.30
2018-07-13T01:40:43.525Z,10.97
2018-07-13T01:43:10.662Z,10.33
2018-07-13T01:45:37.770Z,10.77
2018-07-13T01:48:04.913Z,10.47
2018-07-13T01:50:32.221Z,10.50
2018-07-13T01:52:59.316Z,11.40
2018-07-13T01:55:26.426Z,11.30
2018-07-13T01:57:53.530Z,10.30
2018-07-13T02:00:20.729Z,10.53
2018-07-13T02:02:47.877Z,10.13
2018-07-13T02:05:15.026Z,10.20
2018-07-13T02:07:42.161Z,10.00
2018-07-13T02:10:09.253Z,9.77
2018-07-13T02:12:36.349Z,9.77
2018-07-13T02:15:03.494Z,9.60
2018-07-13T02:17:30.905Z,9.77
2018-07-13T02:19:58.098Z,9.80
2018-07-13T02:22:25.196Z,10.73
2018-07-13T02:24:52.300Z,10.03
2018-07-13T02:27:19.410Z,10.30
2018-07-13T02:29:46.545Z,10.00
2018-07-13T02:32:13.654Z,9.67
2018-07-13T02:34:40.756Z,10.23
2018-07-13T02:37:08.056Z,9.67
2018-07-13T02:39:35.209Z,10.03
2018-07-13T02:42:02.337Z,10.57
2018-07-13T02:44:29.457Z,10.00
2018-07-13T02:46:56.571Z,10.03
2018-07-13T02:49:23.676Z,10.10
2018-07-13T02:51:50.963Z,10.30
2018-07-13T02:54:18.082Z,10.40
2018-07-13T02:56:45.187Z,10.50
2018-07-13T02:59:12.281Z,9.97
2018-07-13T03:01:39.403Z,10.70
2018-07-13T03:04:06.497Z,10.07
2018-07-13T03:06:33.623Z,10.50
2018-07-13T03:09:00.707Z,10.43
2018-07-13T03:11:27.954Z,10.70
2018-07-13T03:13:55.034Z,9.73
2018-07-13T03:16:22.180Z,10.20
2018-07-13T03:18:49.295Z,10.47
2018-07-13T03:21:16.403Z,10.13
2018-07-13T03:23:43.513Z,9.90
2018-07-13T03:26:10.605Z,9.63
2018-07-13T03:28:37.701Z,9.87
2018-07-13T03:31:04.812Z,10.27
2018-07-13T03:33:31.925Z,10.00
2018-07-13T03:35:59.032Z,9.73
2018-07-13T03:38:26.245Z,10.50
2018-07-13T03:40:53.295Z,10.50
2018-07-13T03:43:20.408Z,10.60
2018-07-13T03:45:47.513Z,10.13
2018-07-13T03:48:14.650Z,10.47
2018-07-13T03:50:41.734Z,10.53
2018-07-13T03:53:08.837Z,10.27
2018-07-13T03:55:36.050Z,10.10
2018-07-13T03:58:03.149Z,10.23
2018-07-13T04:00:30.339Z,10.43
2018-07-13T04:02:57.385Z,11.20
2018-07-13T04:05:24.493Z,10.63
2018-07-13T04:07:51.597Z,10.57
2018-07-13T04:10:18.705Z,10.53
2018-07-13T04:12:45.837Z,10.70
2018-07-13T04:15:12.957Z,10.73
2018-07-13T04:17:40.052Z,10.93
2018-07-13T04:20:07.150Z,11.17
2018-07-13T04:22:34.317Z,10.40
2018-07-13T04:25:01.455Z,10.73
2018-07-13T04:27:28.725Z,10.17
2018-07-13T04:29:55.873Z,9.80
2018-07-13T04:32:23.065Z,10.20
2018-07-13T04:34:50.205Z,10.37
2018-07-13T04:37:17.357Z,10.60
2018-07-13T04:39:44.457Z,10.53
2018-07-13T04:42:11.600Z,10.73
2018-07-13T04:44:38.693Z,10.60
2018-07-13T04:47:05.825Z,11.40
2018-07-13T04:49:33.022Z,10.20
2018-07-13T04:52:00.135Z,10.37
2018-07-13T04:54:27.236Z,10.80
2018-07-13T04:56:54.345Z,9.97
2018-07-13T04:59:21.488Z,10.40
2018-07-13T05:01:48.673Z,10.30
2018-07-13T05:04:15.748Z,11.23
2018-07-13T05:06:42.868Z,11.10
2018-07-13T05:09:10.103Z,11.20
2018-07-13T05:11:37.241Z,11.33
2018-07-13T05:14:04.466Z,10.40
2018-07-13T05:16:31.564Z,10.47
2018-07-13T05:18:58.689Z,11.47
2018-07-13T05:21:25.893Z,11.53
2018-07-13T05:23:52.950Z,11.10
2018-07-13T05:26:20.190Z,12.13
2018-07-13T05:28:47.512Z,13.60
2018-07-13T05:31:14.641Z,13.70
2018-07-13T05:33:41.761Z,14.53
2018-07-13T05:36:08.990Z,15.10
2018-07-13T05:38:36.148Z,14.23
2018-07-13T05:41:03.282Z,13.90
2018-07-13T05:43:30.421Z,13.17
2018-07-13T05:46:00.565Z,13.30
2018-07-13T05:48:28.037Z,12.93
2018-07-13T05:50:55.148Z,12.63
2018-07-13T05:53:22.317Z,13.30
2018-07-13T05:55:49.432Z,14.00
2018-07-13T05:58:16.560Z,14.07
2018-07-13T06:00:43.703Z,13.50
2018-07-13T06:03:10.801Z,13.50
2018-07-13T06:05:37.965Z,12.93
2018-07-13T06:08:05.082Z,14.13
2018-07-13T06:10:32.227Z,14.53
2018-07-13T06:12:59.353Z,15.30
2018-07-13T06:15:26.440Z,14.10
2018-07-13T06:17:53.674Z,15.10
2018-07-13T06:20:20.913Z,14.50
2018-07-13T06:22:48.039Z,13.20
2018-07-13T06:25:15.314Z,14.03
2018-07-13T06:27:42.716Z,13.57
2018-07-13T06:30:09.855Z,13.00
2018-07-13T06:32:36.952Z,13.97
2018-07-13T06:35:04.053Z,13.63
2018-07-13T06:37:31.255Z,12.93
2018-07-13T06:39:58.370Z,12.40
2018-07-13T06:42:25.513Z,12.57
2018-07-13T06:44:52.860Z,12.53
2018-07-13T06:47:19.901Z,13.00
2018-07-13T06:49:47.093Z,14.20
2018-07-13T06:52:15.053Z,14.13
2018-07-13T06:54:45.912Z,15.00
2018-07-13T06:57:17.822Z,13.60
2018-07-13T06:59:44.926Z,12.90
2018-07-13T07:02:16.544Z,13.93
2018-07-13T07:04:43.663Z,13.60
2018-07-13T07:07:11.660Z,13.00
2018-07-13T07:09:39.098Z,13.67
2018-07-13T07:13:10.581Z,14.07
2018-07-13T07:15:37.953Z,13.87
2018-07-13T07:18:05.289Z,13.77
2018-07-13T07:20:32.384Z,15.00
2018-07-13T07:22:59.499Z,13.47
2018-07-13T07:25:27.033Z,11.90
2018-07-13T07:27:54.124Z,13.03
2018-07-13T07:30:21.256Z,12.70
2018-07-13T07:32:48.362Z,13.13
2018-07-13T07:35:15.472Z,14.70
2018-07-13T07:37:42.632Z,15.20
2018-07-13T07:40:09.746Z,12.97
2018-07-13T07:42:36.879Z,14.03
2018-07-13T07:45:04.825Z,15.60
2018-07-13T07:47:31.926Z,14.83
2018-07-13T07:49:59.057Z,14.13
2018-07-13T07:52:26.153Z,15.90
2018-07-13T07:54:53.338Z,14.90
2018-07-13T07:57:20.451Z,14.10
2018-07-13T07:59:47.549Z,14.20
2018-07-13T08:02:14.676Z,13.60
2018-07-13T08:04:41.844Z,13.57
2018-07-13T08:07:09.532Z,11.70
2018-07-13T08:09:36.633Z,12.40
2018-07-13T08:12:03.737Z,11.03
2018-07-13T08:14:30.848Z,11.17
2018-07-13T08:16:58.108Z,11.53
2018-07-13T08:19:25.316Z,12.70
2018-07-13T08:21:52.468Z,9.60
2018-07-13T08:24:21.598Z,10.20
2018-07-13T08:26:49.266Z,9.20
2018-07-13T08:29:18.193Z,10.07
2018-07-13T08:31:45.289Z,10.37
2018-07-13T08:34:12.481Z,9.37
2018-07-13T08:36:39.581Z,11.33
2018-07-13T08:39:07.586Z,9.30
2018-07-13T08:41:34.800Z,9.37
2018-07-13T08:44:02.063Z,9.10
2018-07-13T08:46:29.162Z,8.60
2018-07-13T08:48:56.261Z,8.00
2018-07-13T08:51:23.524Z,7.47
2018-07-13T08:53:50.653Z,7.30
2018-07-13T08:56:17.836Z,7.70
2018-07-13T08:58:44.906Z,7.67
2018-07-13T09:01:12.033Z,8.13
2018-07-13T09:03:39.254Z,8.13
2018-07-13T09:06:06.366Z,8.33
2018-07-13T09:08:33.460Z,7.30
2018-07-13T09:11:00.570Z,7.67
2018-07-13T09:13:27.813Z,8.10
2018-07-13T09:15:54.921Z,7.90
2018-07-13T09:18:22.092Z,6.97
2018-07-13T09:20:49.204Z,8.20
2018-07-13T09:23:20.846Z,7.30
2018-07-13T09:25:47.993Z,7.17
2018-07-13T09:28:15.123Z,6.50
2018-07-13T09:30:42.212Z,5.87
2018-07-13T09:33:09.356Z,6.33
2018-07-13T09:35:36.540Z,6.90
2018-07-13T09:38:03.679Z,7.27
2018-07-13T09:40:30.775Z,6.90
2018-07-13T09:42:58.820Z,6.40
2018-07-13T09:45:25.957Z,5.60
2018-07-13T09:47:53.181Z,6.90
2018-07-13T09:50:20.329Z,6.23
2018-07-13T09:52:47.478Z,6.33
2018-07-13T09:55:14.589Z,6.20
2018-07-13T09:57:41.708Z,6.30
2018-07-13T10:00:09.712Z,5.90
2018-07-13T10:02:36.841Z,6.33
2018-07-13T10:05:04.915Z,5.80
2018-07-13T10:07:32.013Z,5.37
2018-07-13T10:09:59.124Z,5.27
2018-07-13T10:12:26.656Z,5.97
2018-07-13T10:14:54.025Z,6.23
2018-07-13T10:17:21.166Z,6.50
2018-07-13T10:19:48.284Z,6.60
2018-07-13T10:22:16.446Z,5.50
2018-07-13T10:24:43.612Z,4.67
2018-07-13T10:27:10.738Z,4.50
2018-07-13T10:29:40.170Z,4.90
2018-07-13T10:32:07.425Z,5.00
2018-07-13T10:34:34.547Z,5.40
2018-07-13T10:37:03.270Z,5.20
2018-07-13T10:39:30.591Z,4.80
2018-07-13T10:41:57.706Z,4.30
2018-07-13T10:44:24.842Z,4.60
2018-07-13T10:46:52.039Z,4.10
2018-07-13T10:49:19.445Z,4.00
2018-07-13T10:51:46.594Z,4.23
2018-07-13T10:54:13.720Z,4.20
2018-07-13T10:56:40.817Z,4.70
2018-07-13T10:59:07.933Z,3.87
2018-07-13T11:01:35.038Z,4.07
2018-07-13T11:04:02.313Z,4.40
2018-07-13T11:06:29.405Z,4.87
2018-07-13T11:08:56.521Z,4.23
2018-07-13T11:11:23.627Z,4.10
2018-07-13T11:13:50.829Z,4.50
2018-07-13T11:16:17.838Z,3.70
2018-07-13T11:18:45.027Z,3.90
2018-07-13T11:21:12.177Z,3.70
2018-07-13T11:23:39.285Z,3.67
2018-07-13T11:26:06.393Z,3.10
2018-07-13T11:28:33.524Z,2.90
2018-07-13T11:31:00.810Z,3.40
2018-07-13T11:33:27.960Z,3.00
2018-07-13T11:35:55.074Z,3.30
2018-07-13T11:38:22.218Z,3.33
2018-07-13T11:40:49.365Z,3.60
2018-07-13T11:43:18.156Z,3.30
2018-07-13T11:45:45.302Z,3.40
2018-07-13T11:48:12.397Z,3.30
2018-07-13T11:50:39.536Z,3.40
2018-07-13T11:53:06.640Z,3.10
2018-07-13T11:55:33.758Z,4.30
2018-07-13T11:58:00.867Z,3.40
2018-07-13T12:00:28.027Z,3.57
2018-07-13T12:02:55.166Z,3.40
2018-07-13T12:05:22.629Z,3.30
2018-07-13T12:07:50.127Z,3.20
2018-07-13T12:10:17.080Z,3.10
2018-07-13T12:12:44.777Z,2.97
2018-07-13T12:15:11.789Z,3.00
2018-07-13T12:17:38.952Z,3.03
2018-07-13T12:20:06.030Z,3.17
2018-07-13T12:22:33.170Z,2.93
2018-07-13T12:25:00.312Z,3.40
2018-07-13T12:27:27.438Z,2.90
2018-07-13T12:29:54.811Z,2.77
2018-07-13T12:32:22.014Z,3.07
2018-07-13T12:34:49.100Z,2.83
2018-07-13T12:37:16.212Z,2.80
2018-07-13T12:39:43.335Z,3.00
2018-07-13T12:42:10.440Z,3.03
2018-07-13T12:44:37.850Z,3.03
2018-07-13T12:47:04.968Z,2.80
2018-07-13T12:49:32.176Z,2.90
2018-07-13T12:51:59.314Z,2.80
2018-07-13T12:54:26.592Z,2.80
2018-07-13T12:56:53.549Z,2.50
2018-07-13T12:59:20.674Z,2.50
2018-07-13T13:01:47.751Z,3.00
2018-07-13T13:04:14.852Z,2.77
2018-07-13T13:06:41.987Z,3.07
2018-07-13T13:09:09.330Z,2.77
2018-07-13T13:11:36.497Z,2.63
2018-07-13T13:14:03.900Z,2.97
2018-07-13T13:16:31.047Z,2.50
2018-07-13T13:18:58.202Z,3.50
2018-07-13T13:21:25.321Z,2.70
2018-07-13T13:23:52.420Z,2.47
2018-07-13T13:26:19.637Z,2.90
2018-07-13T13:28:46.733Z,2.70
2018-07-13T13:31:13.865Z,2.53
2018-07-13T13:33:40.984Z,2.63
2018-07-13T13:36:08.097Z,2.27
2018-07-13T13:38:35.254Z,2.43
2018-07-13T13:41:02.389Z,2.50
2018-07-13T13:43:29.522Z,2.40
2018-07-13T13:45:56.699Z,2.53
2018-07-13T13:48:23.837Z,2.80
2018-07-13T13:50:50.933Z,2.47
2018-07-13T13:53:18.057Z,2.97
2018-07-13T13:55:45.170Z,2.80
2018-07-13T13:58:12.381Z,2.70
2018-07-13T14:00:39.466Z,2.70
2018-07-13T14:03:06.596Z,2.47
2018-07-13T14:05:33.914Z,2.80
2018-07-13T14:08:00.933Z,2.70
2018-07-13T14:10:28.093Z,3.20
2018-07-13T14:12:55.212Z,2.97
2018-07-13T14:15:22.321Z,2.60
2018-07-13T14:17:49.418Z,2.63
2018-07-13T14:20:16.559Z,3.10
2018-07-13T14:22:43.655Z,2.90
2018-07-13T14:25:10.817Z,2.77
2018-07-13T14:27:37.920Z,3.33
2018-07-13T14:30:05.117Z,2.83
2018-07-13T14:32:32.268Z,2.60
2018-07-13T14:34:59.500Z,3.00
2018-07-13T14:37:26.673Z,3.23
2018-07-13T14:39:53.794Z,3.23
2018-07-13T14:42:20.942Z,2.97
2018-07-13T14:44:48.138Z,2.90
2018-07-13T14:47:15.416Z,3.13
2018-07-13T14:49:42.445Z,3.20
2018-07-13T14:52:09.634Z,2.97
2018-07-13T14:54:36.881Z,3.00
2018-07-13T14:57:04.067Z,2.60
2018-07-13T14:59:31.184Z,3.03
2018-07-13T15:01:58.278Z,3.00
2018-07-13T15:05:28.560Z,2.70
2018-07-13T15:07:55.830Z,3.10
2018-07-13T15:10:23.169Z,2.90
2018-07-13T15:12:50.332Z,3.03
2018-07-13T15:15:17.510Z,3.20
2018-07-13T15:17:44.783Z,3.17
2018-07-13T15:20:11.905Z,3.40
2018-07-13T15:22:39.009Z,2.90
2018-07-13T15:25:06.117Z,3.33
2018-07-13T15:27:33.264Z,3.17
2018-07-13T15:30:00.384Z,4.33
2018-07-13T15:32:27.698Z,3.70
2018-07-13T15:34:54.833Z,3.83
2018-07-13T15:37:21.950Z,3.10
2018-07-13T15:39:49.381Z,2.97
2018-07-13T15:42:16.473Z,3.40
2018-07-13T15:44:43.663Z,3.07
2018-07-13T15:47:10.774Z,3.90
2018-07-13T15:49:37.886Z,3.40
2018-07-13T15:52:04.981Z,3.20
2018-07-13T15:54:32.094Z,3.53
2018-07-13T15:56:59.201Z,3.80
2018-07-13T15:59:26.303Z,4.17
2018-07-13T16:01:53.476Z,3.90
2018-07-13T16:04:20.585Z,3.90
2018-07-13T16:06:47.752Z,3.77
2018-07-13T16:09:14.837Z,3.53
2018-07-13T16:11:41.971Z,3.40
2018-07-13T16:14:09.346Z,3.80
2018-07-13T16:16:36.449Z,4.23
2018-07-13T16:19:03.591Z,3.67
2018-07-13T16:21:30.797Z,3.40
2018-07-13T16:23:57.905Z,3.70
2018-07-13T16:26:25.041Z,3.50
2018-07-13T16:28:52.137Z,3.50
2018-07-13T16:31:19.274Z,3.70
2018-07-13T16:33:46.396Z,3.37
2018-07-13T16:36:13.494Z,4.00
2018-07-13T16:38:40.580Z,4.07
2018-07-13T16:41:07.684Z,4.10
2018-07-13T16:43:34.781Z,4.00
2018-07-13T16:46:01.885Z,4.10
2018-07-13T16:48:29.005Z,3.93
2018-07-13T16:50:56.178Z,4.30
2018-07-13T16:53:23.273Z,4.30
2018-07-13T16:55:50.367Z,4.57
2018-07-13T16:58:17.482Z,3.97
2018-07-13T17:00:44.596Z,4.03
2018-07-13T17:03:11.723Z,3.60
2018-07-13T17:05:38.824Z,3.67
2018-07-13T17:08:05.920Z,3.87
2018-07-13T17:10:33.122Z,3.60
2018-07-13T17:13:00.239Z,3.93
2018-07-13T17:15:27.411Z,3.90
2018-07-13T17:17:54.716Z,4.10
2018-07-13T17:20:21.911Z,4.07
2018-07-13T17:22:48.960Z,4.13
2018-07-13T17:25:16.065Z,3.73
2018-07-13T17:27:43.167Z,4.53
2018-07-13T17:30:10.889Z,3.77
2018-07-13T17:32:37.973Z,3.80
2018-07-13T17:35:05.135Z,3.73
2018-07-13T17:37:32.244Z,4.00
2018-07-13T17:39:59.440Z,3.60
2018-07-13T17:42:26.532Z,3.57
2018-07-13T17:44:53.685Z,3.60
2018-07-13T17:47:20.809Z,3.60
2018-07-13T17:49:47.975Z,4.00
2018-07-13T17:52:15.197Z,3.70
2018-07-13T17:54:42.295Z,3.47
2018-07-13T17:57:09.425Z,3.47
2018-07-13T17:59:36.525Z,3.50
2018-07-13T18:02:03.660Z,3.20
2018-07-13T18:04:30.760Z,3.90
2018-07-13T18:06:57.874Z,3.40
2018-07-13T18:09:24.973Z,3.70
2018-07-13T18:11:52.175Z,3.90
2018-07-13T18:14:19.264Z,3.87
2018-07-13T18:16:46.369Z,3.70
2018-07-13T18:19:13.479Z,3.77
2018-07-13T18:21:40.652Z,3.93
2018-07-13T18:24:07.765Z,3.73
2018-07-13T18:26:34.902Z,3.97
2018-07-13T18:29:02.038Z,3.70
2018-07-13T18:31:29.193Z,4.23
2018-07-13T18:33:56.305Z,4.27
2018-07-13T18:36:23.392Z,3.50
2018-07-13T18:38:50.598Z,3.30
2018-07-13T18:41:17.605Z,3.80
2018-07-13T18:43:44.881Z,3.80
2018-07-13T18:46:12.309Z,3.80
2018-07-13T18:48:39.573Z,3.37
2018-07-13T18:51:06.953Z,3.80
2018-07-13T18:53:34.052Z,3.67
2018-07-13T18:56:01.156Z,3.60
2018-07-13T18:58:28.262Z,3.90
2018-07-13T19:00:55.364Z,4.10
2018-07-13T19:03:22.476Z,4.13
2018-07-13T19:05:49.649Z,4.23
2018-07-13T19:08:16.750Z,4.20
2018-07-13T19:10:43.853Z,3.80
2018-07-13T19:13:11.001Z,4.50
2018-07-13T19:15:38.133Z,4.40
2018-07-13T19:18:05.239Z,4.43
2018-07-13T19:20:32.357Z,4.17
2018-07-13T19:22:59.474Z,3.93
2018-07-13T19:25:26.668Z,5.03
2018-07-13T19:27:53.820Z,4.63
2018-07-13T19:30:20.981Z,4.80
2018-07-13T19:32:48.354Z,4.37
2018-07-13T19:35:15.482Z,3.93
2018-07-13T19:37:42.589Z,4.13
2018-07-13T19:40:09.672Z,4.17
2018-07-13T19:42:36.820Z,4.33
2018-07-13T19:45:03.970Z,4.13
2018-07-13T19:47:31.109Z,4.67
2018-07-13T19:49:58.216Z,4.20
2018-07-13T19:52:25.313Z,4.33
2018-07-13T19:54:52.489Z,4.53
2018-07-13T19:57:19.668Z,4.37
2018-07-13T19:59:46.701Z,3.97
2018-07-13T20:02:13.861Z,4.30
2018-07-13T20:04:41.014Z,4.53
2018-07-13T20:07:08.081Z,4.43
2018-07-13T20:09:35.204Z,4.20
2018-07-13T20:12:02.314Z,4.40
2018-07-13T20:14:29.418Z,4.40
2018-07-13T20:16:56.622Z,4.10
2018-07-13T20:19:23.643Z,4.43
2018-07-13T20:21:50.750Z,4.47
2018-07-13T20:24:17.886Z,4.70
2018-07-13T20:26:45.025Z,5.07
2018-07-13T20:29:12.197Z,4.20
2018-07-13T20:31:39.297Z,4.77
2018-07-13T20:34:06.414Z,4.50
2018-07-13T20:36:33.519Z,4.57
2018-07-13T20:39:00.636Z,4.90
2018-07-13T20:41:27.727Z,4.50
2018-07-13T20:43:54.824Z,4.67
2018-07-13T20:46:21.997Z,4.70
2018-07-13T20:48:49.080Z,4.50
2018-07-13T20:51:16.201Z,4.43
2018-07-13T20:53:43.694Z,4.87
2018-07-13T20:56:10.800Z,4.60
2018-07-13T20:58:37.900Z,4.53
2018-07-13T21:01:05.014Z,4.53
2018-07-13T21:03:32.122Z,4.97
2018-07-13T21:05:59.221Z,5.07
2018-07-13T21:08:26.577Z,5.00
2018-07-13T21:10:53.812Z,4.90
2018-07-13T21:13:20.941Z,4.70
2018-07-13T21:15:48.041Z,4.60
2018-07-13T21:18:15.144Z,4.80
2018-07-13T21:20:42.574Z,4.97
2018-07-13T21:23:09.645Z,5.07
2018-07-13T21:25:36.839Z,5.00
2018-07-13T21:28:03.948Z,4.97
2018-07-13T21:30:31.074Z,4.83
2018-07-13T21:32:58.210Z,4.80
2018-07-13T21:35:25.291Z,5.20
2018-07-13T21:37:52.670Z,5.07
2018-07-13T21:40:19.772Z,5.33
2018-07-13T21:42:46.884Z,5.33
2018-07-13T21:45:13.992Z,5.40
2018-07-13T21:47:41.140Z,5.70
2018-07-13T21:50:08.252Z,4.70
2018-07-13T21:52:35.416Z,4.97
2018-07-13T21:55:02.586Z,5.10
2018-07-13T21:57:29.750Z,5.13
2018-07-13T21:59:56.856Z,5.50
2018-07-13T22:02:23.988Z,5.20
2018-07-13T22:04:51.054Z,5.00
2018-07-13T22:07:18.162Z,5.23
2018-07-13T22:09:45.262Z,5.63
2018-07-13T22:12:12.480Z,5.13
2018-07-13T22:14:39.616Z,5.10
2018-07-13T22:17:06.737Z,5.10
2018-07-13T22:19:33.840Z,5.30
2018-07-13T22:22:00.954Z,5.30
2018-07-13T22:24:28.053Z,5.20
2018-07-13T22:26:55.292Z,5.20
2018-07-13T22:29:22.397Z,5.20
2018-07-13T22:31:49.546Z,5.20
2018-07-13T22:34:16.638Z,5.77
2018-07-13T22:36:43.741Z,5.50
2018-07-13T22:39:10.841Z,5.57
2018-07-13T22:41:37.945Z,5.47
2018-07-13T22:44:05.051Z,5.43
2018-07-13T22:46:32.164Z,5.00
2018-07-13T22:48:59.286Z,5.33
2018-07-13T22:51:26.361Z,5.50
2018-07-13T22:53:53.986Z,5.43
2018-07-13T22:56:21.069Z,5.97
2018-07-13T22:58:48.220Z,5.77
2018-07-13T23:01:15.325Z,5.80
2018-07-13T23:03:42.421Z,6.03
2018-07-13T23:06:09.602Z,6.17
2018-07-13T23:08:36.705Z,7.30
2018-07-13T23:11:03.806Z,6.00
2018-07-13T23:13:30.913Z,6.50
2018-07-13T23:15:58.269Z,6.70
2018-07-13T23:18:25.377Z,5.90
2018-07-13T23:20:52.473Z,6.17
2018-07-13T23:23:19.620Z,6.93
2018-07-13T23:25:46.928Z,6.57
2018-07-13T23:28:14.044Z,6.23
2018-07-13T23:30:41.168Z,6.50
2018-07-13T23:33:08.269Z,6.80
2018-07-13T23:35:35.419Z,6.73
2018-07-13T23:38:02.529Z,8.10
2018-07-13T23:40:29.647Z,8.53
2018-07-13T23:42:56.782Z,8.00
2018-07-13T23:45:23.888Z,7.13
2018-07-13T23:47:50.993Z,6.67
2018-07-13T23:50:18.149Z,6.00
2018-07-13T23:52:45.244Z,6.13
2018-07-13T23:55:12.357Z,6.30
2018-07-13T23:57:39.477Z,6.30
